Bloomington, IL (61701)

4:49 PM CDT on July 29, 2015 (GMT -0500)
Across from IWU | | Change Station
CLOSE
Current Station
Personal Weather Station
Location: Bloomington, IL
Elevation: 810 ft
Nearby Weather Stations

Elev 810 ft 40.49 °N, 88.99 °W | Updated 6 minutes ago

Clear
Clear
85.8 °F
Feels Like 85 °F
N
4.0
Wind Variable Wind from WNW
Gusts 11.0 mph

Today
High -- | Low -- °F
--% Chance of Precip.
Yesterday
High -- | Low -- °F
Precip. -- in
5:50 AM 8:14 PM
Waxing Gibbous, 97% visible
Pressure 30.01 in
Visibility 10.0 miles
Clouds Clear
Heat Index 85 °F
Dew Point 59 °F
Humidity 41%
Rainfall 0.82 in
Snow Depth Not available.
UV 7 out of 12
Pollen .70 out of 12
Air Quality Not available.
Flu Activity Not available.
METAR KBMI 292056Z 32013KT 10SM CLR 29/18 A3005 RMK AO2 58004 T02940177 SLP161

More Conditions Fewer Conditions

Pressure 30.01 in
Visibility 10.0 miles
Clouds Clear
Heat Index 85 °F
Dew Point 59 °F
Humidity 41%
Rainfall 0.82 in
Snow Depth Not available.
UV 7 out of 12
Pollen .70 out of 12
Air Quality Not available.
Flu Activity Not available.
METAR KBMI 292056Z 32013KT 10SM CLR 29/18 A3005 RMK AO2 58004 T02940177 SLP161

More Conditions Fewer Conditions

10-Day Weather Forecast

×

Almanac

Astronomy

Jul. 29, 2015 Rise Set
Actual Time
Civil Twilight
Nautical Twilight
Astronomical Twilight
Moon
Length of Visible Light
Length of Day
Tomorrow will be .
, % of the Moon is Illuminated

Today's Extremes

State Highs State Lows

Community

WunderPhotos

Upload Photos

1,842,159 photos uploaded!

WunderBlogs® & News

Nearby

Air Quality

  Air Quality AQ Index Pollutant
Not available.

Snow Depth

Station Depth Elevation

Earthquake Activity

City Distance Mag. Time & Date
Minimum magnitude displayed is 2.5.

Coastal Water Temperatures

Place Temperature

Stations

Nearby Weather Stations

Station Location Temp. Windchill Dew Point Humidity Wind Precip. Elev Updated Type